sensor_id;sensor_type;location;lat;lon;timestamp;P1;durP1;ratioP1;P2;durP2;ratioP2
46318;SDS011;32042;50.916;2.926;2022-10-16T00:00:32;2.80;;;0.70;;
46318;SDS011;32042;50.916;2.926;2022-10-16T00:03:00;0.97;;;0.60;;
46318;SDS011;32042;50.916;2.926;2022-10-16T00:05:26;0.63;;;0.57;;
46318;SDS011;32042;50.916;2.926;2022-10-16T00:07:52;2.70;;;0.73;;
46318;SDS011;32042;50.916;2.926;2022-10-16T00:10:17;2.37;;;1.00;;
46318;SDS011;32042;50.916;2.926;2022-10-16T00:12:43;2.13;;;0.93;;
46318;SDS011;32042;50.916;2.926;2022-10-16T00:15:09;1.00;;;0.70;;
46318;SDS011;32042;50.916;2.926;2022-10-16T00:17:35;4.33;;;0.70;;
46318;SDS011;32042;50.916;2.926;2022-10-16T00:20:00;1.07;;;0.83;;
46318;SDS011;32042;50.916;2.926;2022-10-16T00:22:26;2.10;;;0.70;;
46318;SDS011;32042;50.916;2.926;2022-10-16T00:24:52;1.93;;;0.93;;
46318;SDS011;32042;50.916;2.926;2022-10-16T00:27:17;1.33;;;0.60;;
46318;SDS011;32042;50.916;2.926;2022-10-16T00:29:43;1.27;;;0.60;;
46318;SDS011;32042;50.916;2.926;2022-10-16T00:32:08;1.10;;;0.70;;
46318;SDS011;32042;50.916;2.926;2022-10-16T00:34:34;2.37;;;0.50;;
46318;SDS011;32042;50.916;2.926;2022-10-16T00:37:00;0.57;;;0.53;;
46318;SDS011;32042;50.916;2.926;2022-10-16T00:39:26;4.13;;;0.60;;
46318;SDS011;32042;50.916;2.926;2022-10-16T00:41:51;1.37;;;0.53;;
46318;SDS011;32042;50.916;2.926;2022-10-16T00:50:08;2.17;;;0.70;;
46318;SDS011;32042;50.916;2.926;2022-10-16T00:52:38;1.27;;;0.70;;
46318;SDS011;32042;50.916;2.926;2022-10-16T00:55:06;0.83;;;0.57;;
46318;SDS011;32042;50.916;2.926;2022-10-16T00:57:33;1.80;;;0.60;;
46318;SDS011;32042;50.916;2.926;2022-10-16T00:59:59;2.97;;;0.90;;
46318;SDS011;32042;50.916;2.926;2022-10-16T01:02:26;1.17;;;0.67;;
46318;SDS011;32042;50.916;2.926;2022-10-16T01:04:52;1.63;;;0.60;;
46318;SDS011;32042;50.916;2.926;2022-10-16T01:10:38;2.23;;;0.67;;
46318;SDS011;32042;50.916;2.926;2022-10-16T01:13:11;1.13;;;0.43;;
46318;SDS011;32042;50.916;2.926;2022-10-16T01:15:46;1.53;;;0.80;;
46318;SDS011;32042;50.916;2.926;2022-10-16T01:18:39;1.67;;;0.50;;
46318;SDS011;32042;50.916;2.926;2022-10-16T01:21:11;1.13;;;0.70;;
46318;SDS011;32042;50.916;2.926;2022-10-16T01:29:28;2.83;;;0.73;;
46318;SDS011;32042;50.916;2.926;2022-10-16T01:32:00;2.77;;;0.60;;
46318;SDS011;32042;50.916;2.926;2022-10-16T01:34:35;3.07;;;0.57;;
46318;SDS011;32042;50.916;2.926;2022-10-16T01:37:11;3.63;;;1.00;;
46318;SDS011;32042;50.916;2.926;2022-10-16T01:39:40;3.93;;;0.80;;
46318;SDS011;32042;50.916;2.926;2022-10-16T01:44:44;1.53;;;0.60;;
46318;SDS011;32042;50.916;2.926;2022-10-16T01:47:12;1.67;;;0.73;;
46318;SDS011;32042;50.916;2.926;2022-10-16T01:49:39;1.57;;;1.00;;
46318;SDS011;32042;50.916;2.926;2022-10-16T01:52:09;2.47;;;0.80;;
46318;SDS011;32042;50.916;2.926;2022-10-16T01:54:41;1.53;;;0.80;;
46318;SDS011;32042;50.916;2.926;2022-10-16T01:57:10;2.10;;;0.80;;
46318;SDS011;32042;50.916;2.926;2022-10-16T01:59:43;2.27;;;1.20;;
46318;SDS011;32042;50.916;2.926;2022-10-16T02:02:12;1.77;;;0.77;;
46318;SDS011;32042;50.916;2.926;2022-10-16T02:04:47;3.07;;;0.90;;
46318;SDS011;32042;50.916;2.926;2022-10-16T02:07:18;2.10;;;0.80;;
46318;SDS011;32042;50.916;2.926;2022-10-16T02:09:44;4.57;;;0.90;;
46318;SDS011;32042;50.916;2.926;2022-10-16T02:12:13;4.97;;;1.33;;
46318;SDS011;32042;50.916;2.926;2022-10-16T02:15:00;1.93;;;0.90;;
46318;SDS011;32042;50.916;2.926;2022-10-16T02:17:26;2.17;;;1.20;;
46318;SDS011;32042;50.916;2.926;2022-10-16T02:19:52;2.00;;;1.00;;
46318;SDS011;32042;50.916;2.926;2022-10-16T02:22:27;1.23;;;0.93;;
46318;SDS011;32042;50.916;2.926;2022-10-16T02:33:22;0.70;;;0.60;;
46318;SDS011;32042;50.916;2.926;2022-10-16T02:35:51;1.17;;;0.77;;
46318;SDS011;32042;50.916;2.926;2022-10-16T02:38:19;3.57;;;0.70;;
46318;SDS011;32042;50.916;2.926;2022-10-16T02:40:47;2.53;;;0.73;;
46318;SDS011;32042;50.916;2.926;2022-10-16T02:43:15;1.90;;;0.70;;
46318;SDS011;32042;50.916;2.926;2022-10-16T02:45:42;1.73;;;0.70;;
46318;SDS011;32042;50.916;2.926;2022-10-16T02:48:08;2.60;;;0.80;;
46318;SDS011;32042;50.916;2.926;2022-10-16T02:50:35;4.13;;;0.93;;
46318;SDS011;32042;50.916;2.926;2022-10-16T02:53:02;2.03;;;0.80;;
46318;SDS011;32042;50.916;2.926;2022-10-16T02:55:28;4.03;;;1.00;;
46318;SDS011;32042;50.916;2.926;2022-10-16T02:57:54;2.10;;;0.90;;
46318;SDS011;32042;50.916;2.926;2022-10-16T03:00:20;1.37;;;0.70;;
46318;SDS011;32042;50.916;2.926;2022-10-16T03:02:46;4.80;;;0.87;;
46318;SDS011;32042;50.916;2.926;2022-10-16T03:05:12;1.40;;;0.80;;
46318;SDS011;32042;50.916;2.926;2022-10-16T03:07:38;1.90;;;0.80;;
46318;SDS011;32042;50.916;2.926;2022-10-16T03:10:04;3.20;;;0.80;;
46318;SDS011;32042;50.916;2.926;2022-10-16T03:12:30;1.37;;;0.73;;
46318;SDS011;32042;50.916;2.926;2022-10-16T03:14:56;1.53;;;0.70;;
46318;SDS011;32042;50.916;2.926;2022-10-16T03:17:22;0.83;;;0.70;;
46318;SDS011;32042;50.916;2.926;2022-10-16T03:19:48;2.33;;;0.97;;
46318;SDS011;32042;50.916;2.926;2022-10-16T03:22:14;0.73;;;0.70;;
46318;SDS011;32042;50.916;2.926;2022-10-16T03:24:40;2.07;;;1.00;;
46318;SDS011;32042;50.916;2.926;2022-10-16T03:27:06;1.47;;;1.00;;
46318;SDS011;32042;50.916;2.926;2022-10-16T03:29:33;4.93;;;1.17;;
46318;SDS011;32042;50.916;2.926;2022-10-16T03:31:59;1.40;;;0.77;;
46318;SDS011;32042;50.916;2.926;2022-10-16T03:34:25;1.83;;;1.37;;
46318;SDS011;32042;50.916;2.926;2022-10-16T03:36:51;3.80;;;1.00;;
46318;SDS011;32042;50.916;2.926;2022-10-16T03:39:17;3.60;;;1.03;;
46318;SDS011;32042;50.916;2.926;2022-10-16T03:41:44;1.63;;;0.80;;
46318;SDS011;32042;50.916;2.926;2022-10-16T03:44:11;2.43;;;0.90;;
46318;SDS011;32042;50.916;2.926;2022-10-16T03:46:37;2.23;;;1.07;;
46318;SDS011;32042;50.916;2.926;2022-10-16T03:49:02;4.27;;;0.73;;
46318;SDS011;32042;50.916;2.926;2022-10-16T03:51:28;3.70;;;0.73;;
46318;SDS011;32042;50.916;2.926;2022-10-16T03:53:54;1.87;;;0.80;;
46318;SDS011;32042;50.916;2.926;2022-10-16T03:56:19;2.03;;;1.00;;
46318;SDS011;32042;50.916;2.926;2022-10-16T03:58:45;3.53;;;1.07;;
46318;SDS011;32042;50.916;2.926;2022-10-16T04:01:11;1.33;;;0.90;;
46318;SDS011;32042;50.916;2.926;2022-10-16T04:03:37;4.30;;;1.13;;
46318;SDS011;32042;50.916;2.926;2022-10-16T04:06:02;2.37;;;0.90;;
46318;SDS011;32042;50.916;2.926;2022-10-16T04:08:28;7.30;;;1.10;;
46318;SDS011;32042;50.916;2.926;2022-10-16T04:10:54;3.43;;;0.80;;
46318;SDS011;32042;50.916;2.926;2022-10-16T04:13:19;2.40;;;0.93;;
46318;SDS011;32042;50.916;2.926;2022-10-16T04:15:45;8.40;;;1.50;;
46318;SDS011;32042;50.916;2.926;2022-10-16T04:18:11;2.97;;;0.70;;
46318;SDS011;32042;50.916;2.926;2022-10-16T04:20:37;2.53;;;0.90;;
46318;SDS011;32042;50.916;2.926;2022-10-16T04:23:03;2.93;;;0.90;;
46318;SDS011;32042;50.916;2.926;2022-10-16T04:25:29;1.60;;;1.03;;
46318;SDS011;32042;50.916;2.926;2022-10-16T04:27:55;5.17;;;1.00;;
46318;SDS011;32042;50.916;2.926;2022-10-16T04:30:21;1.90;;;0.93;;
46318;SDS011;32042;50.916;2.926;2022-10-16T04:32:48;4.00;;;1.30;;
46318;SDS011;32042;50.916;2.926;2022-10-16T04:35:15;2.00;;;0.80;;
46318;SDS011;32042;50.916;2.926;2022-10-16T04:37:42;5.37;;;1.10;;
46318;SDS011;32042;50.916;2.926;2022-10-16T04:40:07;3.47;;;0.93;;
46318;SDS011;32042;50.916;2.926;2022-10-16T04:42:33;3.73;;;0.93;;
46318;SDS011;32042;50.916;2.926;2022-10-16T04:44:59;4.10;;;1.00;;
46318;SDS011;32042;50.916;2.926;2022-10-16T04:47:24;5.10;;;1.03;;
46318;SDS011;32042;50.916;2.926;2022-10-16T04:49:50;1.83;;;1.20;;
46318;SDS011;32042;50.916;2.926;2022-10-16T04:52:16;7.60;;;1.10;;
46318;SDS011;32042;50.916;2.926;2022-10-16T04:54:42;2.70;;;0.80;;
46318;SDS011;32042;50.916;2.926;2022-10-16T04:57:10;3.90;;;1.10;;
46318;SDS011;32042;50.916;2.926;2022-10-16T04:59:36;3.07;;;1.30;;
46318;SDS011;32042;50.916;2.926;2022-10-16T05:02:02;1.57;;;0.87;;
46318;SDS011;32042;50.916;2.926;2022-10-16T05:04:27;4.37;;;0.97;;
46318;SDS011;32042;50.916;2.926;2022-10-16T05:06:53;3.27;;;1.10;;
46318;SDS011;32042;50.916;2.926;2022-10-16T05:09:19;2.77;;;1.07;;
46318;SDS011;32042;50.916;2.926;2022-10-16T05:11:45;5.03;;;0.90;;
46318;SDS011;32042;50.916;2.926;2022-10-16T05:14:11;1.73;;;0.80;;
46318;SDS011;32042;50.916;2.926;2022-10-16T05:16:36;3.70;;;0.97;;
46318;SDS011;32042;50.916;2.926;2022-10-16T05:19:02;5.53;;;1.30;;
46318;SDS011;32042;50.916;2.926;2022-10-16T05:21:28;3.77;;;0.97;;
46318;SDS011;32042;50.916;2.926;2022-10-16T05:23:53;3.70;;;0.83;;
46318;SDS011;32042;50.916;2.926;2022-10-16T05:26:20;7.57;;;1.10;;
46318;SDS011;32042;50.916;2.926;2022-10-16T05:28:46;1.70;;;0.93;;
46318;SDS011;32042;50.916;2.926;2022-10-16T05:31:11;5.10;;;1.00;;
46318;SDS011;32042;50.916;2.926;2022-10-16T05:33:37;1.97;;;0.90;;
46318;SDS011;32042;50.916;2.926;2022-10-16T05:36:06;2.93;;;1.13;;
46318;SDS011;32042;50.916;2.926;2022-10-16T05:38:34;2.00;;;0.93;;
46318;SDS011;32042;50.916;2.926;2022-10-16T05:41:00;4.40;;;1.27;;
46318;SDS011;32042;50.916;2.926;2022-10-16T05:43:27;1.90;;;0.70;;
46318;SDS011;32042;50.916;2.926;2022-10-16T05:46:01;5.00;;;1.10;;
46318;SDS011;32042;50.916;2.926;2022-10-16T05:48:28;2.33;;;0.90;;
46318;SDS011;32042;50.916;2.926;2022-10-16T05:51:02;2.53;;;1.27;;
46318;SDS011;32042;50.916;2.926;2022-10-16T05:53:32;4.43;;;1.20;;
46318;SDS011;32042;50.916;2.926;2022-10-16T05:55:59;2.97;;;0.87;;
46318;SDS011;32042;50.916;2.926;2022-10-16T05:58:30;4.83;;;1.23;;
46318;SDS011;32042;50.916;2.926;2022-10-16T06:01:02;3.07;;;0.83;;
46318;SDS011;32042;50.916;2.926;2022-10-16T06:03:33;4.33;;;0.83;;
46318;SDS011;32042;50.916;2.926;2022-10-16T06:05:59;8.00;;;0.90;;
46318;SDS011;32042;50.916;2.926;2022-10-16T06:08:31;4.30;;;0.80;;
46318;SDS011;32042;50.916;2.926;2022-10-16T06:11:04;3.23;;;0.90;;
46318;SDS011;32042;50.916;2.926;2022-10-16T06:13:31;7.00;;;1.13;;
46318;SDS011;32042;50.916;2.926;2022-10-16T06:15:57;3.70;;;0.80;;
46318;SDS011;32042;50.916;2.926;2022-10-16T06:18:24;4.50;;;1.07;;
46318;SDS011;32042;50.916;2.926;2022-10-16T06:20:50;4.57;;;1.33;;
46318;SDS011;32042;50.916;2.926;2022-10-16T06:23:16;3.63;;;0.90;;
46318;SDS011;32042;50.916;2.926;2022-10-16T06:25:42;6.30;;;1.67;;
46318;SDS011;32042;50.916;2.926;2022-10-16T06:28:07;2.90;;;1.40;;
46318;SDS011;32042;50.916;2.926;2022-10-16T06:30:33;2.57;;;1.20;;
46318;SDS011;32042;50.916;2.926;2022-10-16T06:32:59;7.53;;;1.23;;
46318;SDS011;32042;50.916;2.926;2022-10-16T06:35:24;8.23;;;1.30;;
46318;SDS011;32042;50.916;2.926;2022-10-16T06:37:50;5.27;;;1.53;;
46318;SDS011;32042;50.916;2.926;2022-10-16T06:40:18;2.80;;;1.30;;
46318;SDS011;32042;50.916;2.926;2022-10-16T06:42:43;4.07;;;1.33;;
46318;SDS011;32042;50.916;2.926;2022-10-16T06:45:10;3.87;;;1.10;;
46318;SDS011;32042;50.916;2.926;2022-10-16T06:47:35;3.87;;;1.37;;
46318;SDS011;32042;50.916;2.926;2022-10-16T06:50:01;3.80;;;1.30;;
46318;SDS011;32042;50.916;2.926;2022-10-16T06:52:28;2.53;;;1.13;;
46318;SDS011;32042;50.916;2.926;2022-10-16T06:54:54;7.87;;;1.57;;
46318;SDS011;32042;50.916;2.926;2022-10-16T06:57:19;4.37;;;1.10;;
46318;SDS011;32042;50.916;2.926;2022-10-16T06:59:45;5.10;;;1.30;;
46318;SDS011;32042;50.916;2.926;2022-10-16T07:02:11;4.70;;;1.13;;
46318;SDS011;32042;50.916;2.926;2022-10-16T07:04:37;3.73;;;1.20;;
46318;SDS011;32042;50.916;2.926;2022-10-16T07:07:02;4.23;;;1.43;;
46318;SDS011;32042;50.916;2.926;2022-10-16T07:09:28;4.00;;;1.20;;
46318;SDS011;32042;50.916;2.926;2022-10-16T07:11:53;2.40;;;1.33;;
46318;SDS011;32042;50.916;2.926;2022-10-16T07:14:20;10.67;;;1.57;;
46318;SDS011;32042;50.916;2.926;2022-10-16T07:16:46;3.10;;;1.20;;
46318;SDS011;32042;50.916;2.926;2022-10-16T07:19:13;3.20;;;1.20;;
46318;SDS011;32042;50.916;2.926;2022-10-16T07:21:40;6.30;;;1.70;;
46318;SDS011;32042;50.916;2.926;2022-10-16T07:24:07;4.73;;;1.50;;
46318;SDS011;32042;50.916;2.926;2022-10-16T07:26:38;3.13;;;1.17;;
46318;SDS011;32042;50.916;2.926;2022-10-16T07:29:04;5.43;;;1.73;;
46318;SDS011;32042;50.916;2.926;2022-10-16T07:31:38;5.73;;;1.10;;
46318;SDS011;32042;50.916;2.926;2022-10-16T07:34:04;3.10;;;1.13;;
46318;SDS011;32042;50.916;2.926;2022-10-16T07:36:30;5.27;;;1.10;;
46318;SDS011;32042;50.916;2.926;2022-10-16T07:38:56;2.73;;;1.30;;
46318;SDS011;32042;50.916;2.926;2022-10-16T07:41:22;3.03;;;1.20;;
46318;SDS011;32042;50.916;2.926;2022-10-16T07:43:48;4.27;;;1.10;;
46318;SDS011;32042;50.916;2.926;2022-10-16T07:46:16;5.03;;;1.43;;
46318;SDS011;32042;50.916;2.926;2022-10-16T07:48:43;1.77;;;1.07;;
46318;SDS011;32042;50.916;2.926;2022-10-16T07:51:12;3.63;;;1.47;;
46318;SDS011;32042;50.916;2.926;2022-10-16T07:53:39;4.20;;;2.00;;
46318;SDS011;32042;50.916;2.926;2022-10-16T07:56:05;4.37;;;1.40;;
46318;SDS011;32042;50.916;2.926;2022-10-16T07:58:32;3.80;;;1.13;;
46318;SDS011;32042;50.916;2.926;2022-10-16T08:01:05;2.50;;;1.00;;
46318;SDS011;32042;50.916;2.926;2022-10-16T08:03:32;5.57;;;1.30;;
46318;SDS011;32042;50.916;2.926;2022-10-16T08:05:58;3.27;;;1.13;;
46318;SDS011;32042;50.916;2.926;2022-10-16T08:08:24;5.17;;;1.30;;
46318;SDS011;32042;50.916;2.926;2022-10-16T08:10:51;5.60;;;0.97;;
46318;SDS011;32042;50.916;2.926;2022-10-16T08:13:17;3.23;;;1.00;;
46318;SDS011;32042;50.916;2.926;2022-10-16T08:15:43;4.87;;;1.10;;
46318;SDS011;32042;50.916;2.926;2022-10-16T08:18:09;4.80;;;1.37;;
46318;SDS011;32042;50.916;2.926;2022-10-16T08:20:36;3.20;;;1.20;;
46318;SDS011;32042;50.916;2.926;2022-10-16T08:23:02;4.57;;;1.30;;
46318;SDS011;32042;50.916;2.926;2022-10-16T08:25:28;4.00;;;1.70;;
46318;SDS011;32042;50.916;2.926;2022-10-16T08:27:54;3.63;;;1.23;;
46318;SDS011;32042;50.916;2.926;2022-10-16T08:30:20;3.20;;;1.00;;
46318;SDS011;32042;50.916;2.926;2022-10-16T08:32:47;3.10;;;1.20;;
46318;SDS011;32042;50.916;2.926;2022-10-16T08:35:13;5.47;;;1.10;;
46318;SDS011;32042;50.916;2.926;2022-10-16T08:37:40;6.13;;;0.90;;
46318;SDS011;32042;50.916;2.926;2022-10-16T08:40:07;4.23;;;1.10;;
46318;SDS011;32042;50.916;2.926;2022-10-16T08:50:49;9.27;;;1.38;;
46318;SDS011;32042;50.916;2.926;2022-10-16T08:53:24;4.90;;;1.60;;
46318;SDS011;32042;50.916;2.926;2022-10-16T08:56:14;3.95;;;1.50;;
46318;SDS011;32042;50.916;2.926;2022-10-16T08:58:40;4.10;;;1.23;;
46318;SDS011;32042;50.916;2.926;2022-10-16T09:01:11;3.33;;;0.90;;
46318;SDS011;32042;50.916;2.926;2022-10-16T09:03:54;3.50;;;1.30;;
46318;SDS011;32042;50.916;2.926;2022-10-16T09:07:05;5.18;;;1.08;;
46318;SDS011;32042;50.916;2.926;2022-10-16T09:11:55;3.70;;;1.02;;
46318;SDS011;32042;50.916;2.926;2022-10-16T09:17:03;6.55;;;1.25;;
46318;SDS011;32042;50.916;2.926;2022-10-16T09:23:36;4.60;;;1.25;;
46318;SDS011;32042;50.916;2.926;2022-10-16T09:25:53;2.77;;;1.60;;
46318;SDS011;32042;50.916;2.926;2022-10-16T09:28:21;6.32;;;1.80;;
46318;SDS011;32042;50.916;2.926;2022-10-16T09:30:47;10.55;;;1.77;;
46318;SDS011;32042;50.916;2.926;2022-10-16T09:33:17;5.82;;;1.27;;
46318;SDS011;32042;50.916;2.926;2022-10-16T09:35:49;3.13;;;1.20;;
46318;SDS011;32042;50.916;2.926;2022-10-16T09:38:30;3.55;;;1.00;;
46318;SDS011;32042;50.916;2.926;2022-10-16T09:41:01;4.68;;;1.60;;
46318;SDS011;32042;50.916;2.926;2022-10-16T09:43:46;7.05;;;1.20;;
46318;SDS011;32042;50.916;2.926;2022-10-16T09:46:21;3.78;;;1.00;;
46318;SDS011;32042;50.916;2.926;2022-10-16T09:49:02;3.50;;;1.08;;
46318;SDS011;32042;50.916;2.926;2022-10-16T09:51:34;8.00;;;1.38;;
46318;SDS011;32042;50.916;2.926;2022-10-16T09:56:33;5.55;;;1.17;;
46318;SDS011;32042;50.916;2.926;2022-10-16T09:59:11;4.32;;;1.38;;
46318;SDS011;32042;50.916;2.926;2022-10-16T10:01:40;2.85;;;0.90;;
46318;SDS011;32042;50.916;2.926;2022-10-16T10:04:08;5.15;;;1.45;;
46318;SDS011;32042;50.916;2.926;2022-10-16T10:06:41;5.70;;;1.42;;
46318;SDS011;32042;50.916;2.926;2022-10-16T10:11:49;3.53;;;1.35;;
46318;SDS011;32042;50.916;2.926;2022-10-16T10:14:20;3.20;;;1.00;;
46318;SDS011;32042;50.916;2.926;2022-10-16T10:16:48;7.82;;;1.42;;
46318;SDS011;32042;50.916;2.926;2022-10-16T10:19:20;3.78;;;1.30;;
46318;SDS011;32042;50.916;2.926;2022-10-16T10:21:49;4.15;;;1.25;;
46318;SDS011;32042;50.916;2.926;2022-10-16T10:24:17;3.40;;;1.20;;
46318;SDS011;32042;50.916;2.926;2022-10-16T10:26:52;6.30;;;1.52;;
46318;SDS011;32042;50.916;2.926;2022-10-16T10:29:31;6.05;;;1.27;;
46318;SDS011;32042;50.916;2.926;2022-10-16T10:43:02;3.13;;;1.15;;
46318;SDS011;32042;50.916;2.926;2022-10-16T10:56:24;5.32;;;1.52;;
46318;SDS011;32042;50.916;2.926;2022-10-16T11:05:35;4.78;;;1.40;;
46318;SDS011;32042;50.916;2.926;2022-10-16T11:07:58;6.57;;;1.55;;
46318;SDS011;32042;50.916;2.926;2022-10-16T11:13:28;2.35;;;1.00;;
46318;SDS011;32042;50.916;2.926;2022-10-16T11:16:07;3.40;;;1.10;;
46318;SDS011;32042;50.916;2.926;2022-10-16T11:18:58;7.03;;;1.52;;
46318;SDS011;32042;50.916;2.926;2022-10-16T11:21:47;6.95;;;1.58;;
46318;SDS011;32042;50.916;2.926;2022-10-16T11:24:23;4.90;;;1.15;;
46318;SDS011;32042;50.916;2.926;2022-10-16T11:27:03;3.72;;;1.10;;
46318;SDS011;32042;50.916;2.926;2022-10-16T11:29:43;5.13;;;0.93;;
46318;SDS011;32042;50.916;2.926;2022-10-16T11:32:18;7.28;;;1.23;;
46318;SDS011;32042;50.916;2.926;2022-10-16T11:34:57;7.55;;;1.30;;
46318;SDS011;32042;50.916;2.926;2022-10-16T11:37:34;7.05;;;1.33;;
46318;SDS011;32042;50.916;2.926;2022-10-16T11:43:37;6.30;;;1.40;;
46318;SDS011;32042;50.916;2.926;2022-10-16T11:45:51;6.90;;;1.08;;
46318;SDS011;32042;50.916;2.926;2022-10-16T11:51:30;3.75;;;1.17;;
46318;SDS011;32042;50.916;2.926;2022-10-16T11:56:58;5.22;;;1.23;;
46318;SDS011;32042;50.916;2.926;2022-10-16T11:59:45;6.68;;;1.50;;
46318;SDS011;32042;50.916;2.926;2022-10-16T12:05:26;6.28;;;1.23;;
46318;SDS011;32042;50.916;2.926;2022-10-16T12:08:15;3.47;;;1.00;;
46318;SDS011;32042;50.916;2.926;2022-10-16T12:10:42;2.97;;;1.15;;
46318;SDS011;32042;50.916;2.926;2022-10-16T12:18:38;5.82;;;1.50;;
46318;SDS011;32042;50.916;2.926;2022-10-16T12:21:04;2.75;;;0.73;;
46318;SDS011;32042;50.916;2.926;2022-10-16T12:23:53;2.78;;;1.23;;
46318;SDS011;32042;50.916;2.926;2022-10-16T12:26:28;4.70;;;1.15;;
46318;SDS011;32042;50.916;2.926;2022-10-16T12:29:12;5.53;;;1.20;;
46318;SDS011;32042;50.916;2.926;2022-10-16T12:31:42;2.75;;;1.00;;
46318;SDS011;32042;50.916;2.926;2022-10-16T12:34:14;5.85;;;0.82;;
46318;SDS011;32042;50.916;2.926;2022-10-16T12:37:13;4.53;;;1.10;;
46318;SDS011;32042;50.916;2.926;2022-10-16T12:39:44;4.40;;;1.10;;
46318;SDS011;32042;50.916;2.926;2022-10-16T12:44:52;4.03;;;1.10;;
46318;SDS011;32042;50.916;2.926;2022-10-16T12:47:47;5.18;;;1.00;;
46318;SDS011;32042;50.916;2.926;2022-10-16T12:50:23;4.88;;;1.10;;
46318;SDS011;32042;50.916;2.926;2022-10-16T12:52:49;4.85;;;1.05;;
46318;SDS011;32042;50.916;2.926;2022-10-16T12:55:18;6.55;;;0.82;;
46318;SDS011;32042;50.916;2.926;2022-10-16T13:08:19;3.63;;;1.45;;
46318;SDS011;32042;50.916;2.926;2022-10-16T13:27:34;2.88;;;0.98;;
46318;SDS011;32042;50.916;2.926;2022-10-16T13:30:17;1.90;;;0.80;;
46318;SDS011;32042;50.916;2.926;2022-10-16T13:32:47;4.82;;;1.00;;
46318;SDS011;32042;50.916;2.926;2022-10-16T13:35:24;1.40;;;0.98;;
46318;SDS011;32042;50.916;2.926;2022-10-16T13:38:03;4.03;;;1.40;;
46318;SDS011;32042;50.916;2.926;2022-10-16T13:40:29;2.45;;;0.90;;
46318;SDS011;32042;50.916;2.926;2022-10-16T13:42:55;2.55;;;0.98;;
46318;SDS011;32042;50.916;2.926;2022-10-16T13:45:22;1.40;;;0.88;;
46318;SDS011;32042;50.916;2.926;2022-10-16T13:47:50;3.17;;;1.00;;
46318;SDS011;32042;50.916;2.926;2022-10-16T13:50:26;2.33;;;0.80;;
46318;SDS011;32042;50.916;2.926;2022-10-16T13:52:52;2.70;;;0.80;;
46318;SDS011;32042;50.916;2.926;2022-10-16T13:55:38;1.02;;;0.60;;
46318;SDS011;32042;50.916;2.926;2022-10-16T13:58:07;1.30;;;0.60;;
46318;SDS011;32042;50.916;2.926;2022-10-16T14:00:37;3.13;;;1.10;;
46318;SDS011;32042;50.916;2.926;2022-10-16T14:03:11;1.50;;;1.02;;
46318;SDS011;32042;50.916;2.926;2022-10-16T14:08:16;1.33;;;0.70;;
46318;SDS011;32042;50.916;2.926;2022-10-16T14:10:42;1.92;;;0.57;;
46318;SDS011;32042;50.916;2.926;2022-10-16T14:13:12;3.83;;;0.80;;
46318;SDS011;32042;50.916;2.926;2022-10-16T14:15:45;3.72;;;1.00;;
46318;SDS011;32042;50.916;2.926;2022-10-16T14:18:15;2.95;;;1.13;;
46318;SDS011;32042;50.916;2.926;2022-10-16T14:20:48;2.58;;;0.93;;
46318;SDS011;32042;50.916;2.926;2022-10-16T14:23:28;1.20;;;0.50;;
46318;SDS011;32042;50.916;2.926;2022-10-16T14:28:38;2.40;;;0.60;;
46318;SDS011;32042;50.916;2.926;2022-10-16T14:33:55;1.48;;;0.45;;
46318;SDS011;32042;50.916;2.926;2022-10-16T14:36:21;4.28;;;0.88;;
46318;SDS011;32042;50.916;2.926;2022-10-16T14:38:55;3.20;;;0.90;;
46318;SDS011;32042;50.916;2.926;2022-10-16T14:41:42;1.83;;;0.80;;
46318;SDS011;32042;50.916;2.926;2022-10-16T14:44:10;3.70;;;0.85;;
46318;SDS011;32042;50.916;2.926;2022-10-16T14:46:38;2.58;;;0.63;;
46318;SDS011;32042;50.916;2.926;2022-10-16T14:51:37;1.98;;;0.90;;
46318;SDS011;32042;50.916;2.926;2022-10-16T14:54:07;3.05;;;1.10;;
46318;SDS011;32042;50.916;2.926;2022-10-16T14:56:35;2.85;;;1.20;;
46318;SDS011;32042;50.916;2.926;2022-10-16T14:59:19;2.47;;;1.30;;
46318;SDS011;32042;50.916;2.926;2022-10-16T15:01:53;2.33;;;1.13;;
46318;SDS011;32042;50.916;2.926;2022-10-16T15:04:19;1.27;;;0.90;;
46318;SDS011;32042;50.916;2.926;2022-10-16T15:06:45;3.50;;;0.95;;
46318;SDS011;32042;50.916;2.926;2022-10-16T15:09:11;3.22;;;1.10;;
46318;SDS011;32042;50.916;2.926;2022-10-16T15:11:36;4.60;;;0.85;;
46318;SDS011;32042;50.916;2.926;2022-10-16T15:14:03;3.17;;;1.13;;
46318;SDS011;32042;50.916;2.926;2022-10-16T15:16:30;5.82;;;1.52;;
46318;SDS011;32042;50.916;2.926;2022-10-16T15:18:56;2.90;;;1.20;;
46318;SDS011;32042;50.916;2.926;2022-10-16T15:23:52;2.63;;;1.17;;
46318;SDS011;32042;50.916;2.926;2022-10-16T15:26:18;3.35;;;2.00;;
46318;SDS011;32042;50.916;2.926;2022-10-16T15:28:44;3.20;;;1.88;;
46318;SDS011;32042;50.916;2.926;2022-10-16T15:31:09;3.40;;;1.80;;
46318;SDS011;32042;50.916;2.926;2022-10-16T15:33:35;3.03;;;1.58;;
46318;SDS011;32042;50.916;2.926;2022-10-16T15:36:01;4.20;;;1.30;;
46318;SDS011;32042;50.916;2.926;2022-10-16T15:38:27;2.03;;;1.33;;
46318;SDS011;32042;50.916;2.926;2022-10-16T15:40:54;2.28;;;1.30;;
46318;SDS011;32042;50.916;2.926;2022-10-16T15:43:20;3.25;;;1.70;;
46318;SDS011;32042;50.916;2.926;2022-10-16T15:45:51;2.85;;;1.38;;
46318;SDS011;32042;50.916;2.926;2022-10-16T15:48:28;1.73;;;1.02;;
46318;SDS011;32042;50.916;2.926;2022-10-16T15:50:55;3.55;;;1.45;;
46318;SDS011;32042;50.916;2.926;2022-10-16T15:53:21;2.75;;;1.27;;
46318;SDS011;32042;50.916;2.926;2022-10-16T15:55:47;5.18;;;1.58;;
46318;SDS011;32042;50.916;2.926;2022-10-16T15:58:12;3.35;;;1.40;;
46318;SDS011;32042;50.916;2.926;2022-10-16T16:00:38;6.43;;;2.38;;
46318;SDS011;32042;50.916;2.926;2022-10-16T16:03:04;13.43;;;3.20;;
46318;SDS011;32042;50.916;2.926;2022-10-16T16:05:29;4.15;;;1.65;;
46318;SDS011;32042;50.916;2.926;2022-10-16T16:07:55;4.70;;;1.50;;
46318;SDS011;32042;50.916;2.926;2022-10-16T16:10:22;3.92;;;1.42;;
46318;SDS011;32042;50.916;2.926;2022-10-16T16:12:48;5.05;;;1.80;;
46318;SDS011;32042;50.916;2.926;2022-10-16T16:15:17;5.70;;;2.80;;
46318;SDS011;32042;50.916;2.926;2022-10-16T16:17:43;13.23;;;8.75;;
46318;SDS011;32042;50.916;2.926;2022-10-16T16:20:09;21.58;;;9.55;;
46318;SDS011;32042;50.916;2.926;2022-10-16T16:22:35;15.23;;;9.57;;
46318;SDS011;32042;50.916;2.926;2022-10-16T16:25:01;16.42;;;9.23;;
46318;SDS011;32042;50.916;2.926;2022-10-16T16:27:27;9.43;;;4.65;;
46318;SDS011;32042;50.916;2.926;2022-10-16T16:29:54;6.50;;;2.65;;
46318;SDS011;32042;50.916;2.926;2022-10-16T16:32:21;6.18;;;1.85;;
46318;SDS011;32042;50.916;2.926;2022-10-16T16:34:47;7.10;;;1.90;;
46318;SDS011;32042;50.916;2.926;2022-10-16T16:37:13;5.35;;;1.98;;
46318;SDS011;32042;50.916;2.926;2022-10-16T16:39:38;4.20;;;2.10;;
46318;SDS011;32042;50.916;2.926;2022-10-16T16:42:04;10.00;;;7.35;;
46318;SDS011;32042;50.916;2.926;2022-10-16T16:44:32;7.05;;;4.50;;
46318;SDS011;32042;50.916;2.926;2022-10-16T16:46:58;7.80;;;6.43;;
46318;SDS011;32042;50.916;2.926;2022-10-16T16:49:24;10.32;;;7.47;;
46318;SDS011;32042;50.916;2.926;2022-10-16T16:51:49;7.50;;;6.80;;
46318;SDS011;32042;50.916;2.926;2022-10-16T16:54:15;27.05;;;19.50;;
46318;SDS011;32042;50.916;2.926;2022-10-16T16:56:41;37.28;;;29.50;;
46318;SDS011;32042;50.916;2.926;2022-10-16T16:59:11;39.50;;;28.98;;
46318;SDS011;32042;50.916;2.926;2022-10-16T17:01:39;54.50;;;41.60;;
46318;SDS011;32042;50.916;2.926;2022-10-16T17:04:05;80.03;;;58.50;;
46318;SDS011;32042;50.916;2.926;2022-10-16T17:06:30;48.67;;;36.30;;
46318;SDS011;32042;50.916;2.926;2022-10-16T17:08:57;11.30;;;10.02;;
46318;SDS011;32042;50.916;2.926;2022-10-16T17:11:24;14.18;;;8.20;;
46318;SDS011;32042;50.916;2.926;2022-10-16T17:13:51;10.57;;;7.15;;
46318;SDS011;32042;50.916;2.926;2022-10-16T17:16:19;8.18;;;5.88;;
46318;SDS011;32042;50.916;2.926;2022-10-16T17:18:46;5.15;;;2.67;;